Terminal Aerodrome Forecast
Issued by NWS

Current Version | Previous Version | Text Only | Print | Product List | Glossary On
Versions: 1 2 3 4 5 6 7 8 9 10 11 12 13 14 15 16 17
000
FTUS44 KBMX 261004 AAC
TAFANB
TAF AMD
KANB 261004Z 2610/2706 26004KT P6SM SKC
     FM261100 25003KT 3SM BR OVC007
     FM261400 27012KT P6SM SCT250=

USA.gov is the U.S. government's official web portal to all federal, state and local government web resources and services.